sensor_id;sensor_type;location;lat;lon;timestamp;temperature;humidity
57843;DHT22;43673;51.058;3.734;2023-10-13T00:01:54;18.80;99.90
57843;DHT22;43673;51.058;3.734;2023-10-13T00:04:24;18.80;99.90
57843;DHT22;43673;51.058;3.734;2023-10-13T00:06:51;18.80;99.90
57843;DHT22;43673;51.058;3.734;2023-10-13T00:09:16;18.70;99.90
57843;DHT22;43673;51.058;3.734;2023-10-13T00:11:43;18.70;99.90
57843;DHT22;43673;51.058;3.734;2023-10-13T00:14:13;18.70;99.90
57843;DHT22;43673;51.058;3.734;2023-10-13T00:16:43;18.70;99.90
57843;DHT22;43673;51.058;3.734;2023-10-13T00:19:27;18.60;99.90
57843;DHT22;43673;51.058;3.734;2023-10-13T00:21:53;18.60;99.90
57843;DHT22;43673;51.058;3.734;2023-10-13T00:24:21;18.70;99.90
57843;DHT22;43673;51.058;3.734;2023-10-13T00:26:48;18.70;99.90
57843;DHT22;43673;51.058;3.734;2023-10-13T00:29:14;18.70;99.90
57843;DHT22;43673;51.058;3.734;2023-10-13T00:31:43;18.70;99.90
57843;DHT22;43673;51.058;3.734;2023-10-13T00:34:10;18.70;99.90
57843;DHT22;43673;51.058;3.734;2023-10-13T00:36:38;18.70;99.90
57843;DHT22;43673;51.058;3.734;2023-10-13T00:39:22;18.70;99.90
57843;DHT22;43673;51.058;3.734;2023-10-13T00:41:49;18.70;99.90
57843;DHT22;43673;51.058;3.734;2023-10-13T00:44:20;18.70;99.90
57843;DHT22;43673;51.058;3.734;2023-10-13T00:47:04;18.70;99.90
57843;DHT22;43673;51.058;3.734;2023-10-13T00:49:33;18.70;99.90
57843;DHT22;43673;51.058;3.734;2023-10-13T00:52:04;18.70;99.90
57843;DHT22;43673;51.058;3.734;2023-10-13T00:54:29;18.80;99.90
57843;DHT22;43673;51.058;3.734;2023-10-13T00:56:55;18.80;99.90
57843;DHT22;43673;51.058;3.734;2023-10-13T00:59:33;18.80;99.90
57843;DHT22;43673;51.058;3.734;2023-10-13T01:02:02;18.90;99.90
57843;DHT22;43673;51.058;3.734;2023-10-13T01:04:49;18.80;99.90
57843;DHT22;43673;51.058;3.734;2023-10-13T01:07:14;18.80;99.90
57843;DHT22;43673;51.058;3.734;2023-10-13T01:09:47;18.80;99.90
57843;DHT22;43673;51.058;3.734;2023-10-13T01:12:13;18.70;99.90
57843;DHT22;43673;51.058;3.734;2023-10-13T01:14:40;18.80;99.90
57843;DHT22;43673;51.058;3.734;2023-10-13T01:17:06;18.70;99.90
57843;DHT22;43673;51.058;3.734;2023-10-13T01:19:36;18.80;99.90
57843;DHT22;43673;51.058;3.734;2023-10-13T01:22:08;18.70;99.90
57843;DHT22;43673;51.058;3.734;2023-10-13T01:24:33;18.80;99.90
57843;DHT22;43673;51.058;3.734;2023-10-13T01:27:01;18.80;99.90
57843;DHT22;43673;51.058;3.734;2023-10-13T01:29:53;18.80;99.90
57843;DHT22;43673;51.058;3.734;2023-10-13T01:32:24;18.80;99.90
57843;DHT22;43673;51.058;3.734;2023-10-13T01:34:51;18.80;99.90
57843;DHT22;43673;51.058;3.734;2023-10-13T01:37:21;18.80;99.90
57843;DHT22;43673;51.058;3.734;2023-10-13T01:39:47;18.80;99.90
57843;DHT22;43673;51.058;3.734;2023-10-13T01:42:15;18.80;99.90
57843;DHT22;43673;51.058;3.734;2023-10-13T01:44:47;18.80;99.90
57843;DHT22;43673;51.058;3.734;2023-10-13T01:47:13;18.80;99.90
57843;DHT22;43673;51.058;3.734;2023-10-13T01:49:39;18.80;99.90
57843;DHT22;43673;51.058;3.734;2023-10-13T01:52:12;18.80;99.90
57843;DHT22;43673;51.058;3.734;2023-10-13T01:54:44;18.70;99.90
57843;DHT22;43673;51.058;3.734;2023-10-13T01:57:13;18.70;99.90
57843;DHT22;43673;51.058;3.734;2023-10-13T01:59:40;18.70;99.90
57843;DHT22;43673;51.058;3.734;2023-10-13T02:02:10;18.70;99.90
57843;DHT22;43673;51.058;3.734;2023-10-13T02:04:39;18.70;99.90
57843;DHT22;43673;51.058;3.734;2023-10-13T02:07:14;18.70;99.90
57843;DHT22;43673;51.058;3.734;2023-10-13T02:09:41;18.80;99.90
57843;DHT22;43673;51.058;3.734;2023-10-13T02:12:09;18.80;99.90
57843;DHT22;43673;51.058;3.734;2023-10-13T02:14:37;18.90;99.90
57843;DHT22;43673;51.058;3.734;2023-10-13T02:17:04;18.80;99.90
57843;DHT22;43673;51.058;3.734;2023-10-13T02:19:39;18.80;99.90
57843;DHT22;43673;51.058;3.734;2023-10-13T02:22:11;18.80;99.90
57843;DHT22;43673;51.058;3.734;2023-10-13T02:24:37;18.80;99.90
57843;DHT22;43673;51.058;3.734;2023-10-13T02:27:09;18.80;99.90
57843;DHT22;43673;51.058;3.734;2023-10-13T02:29:42;18.70;99.90
57843;DHT22;43673;51.058;3.734;2023-10-13T02:32:11;18.80;99.90
57843;DHT22;43673;51.058;3.734;2023-10-13T02:34:47;18.70;99.90
57843;DHT22;43673;51.058;3.734;2023-10-13T02:37:12;18.80;99.90
57843;DHT22;43673;51.058;3.734;2023-10-13T02:39:39;18.70;99.90
57843;DHT22;43673;51.058;3.734;2023-10-13T02:42:08;18.70;99.90
57843;DHT22;43673;51.058;3.734;2023-10-13T02:44:41;18.70;99.90
57843;DHT22;43673;51.058;3.734;2023-10-13T02:47:11;18.70;99.90
57843;DHT22;43673;51.058;3.734;2023-10-13T02:49:40;18.70;99.90
57843;DHT22;43673;51.058;3.734;2023-10-13T02:52:09;18.70;99.90
57843;DHT22;43673;51.058;3.734;2023-10-13T02:54:39;18.80;99.90
57843;DHT22;43673;51.058;3.734;2023-10-13T02:57:19;18.80;99.90
57843;DHT22;43673;51.058;3.734;2023-10-13T02:59:45;18.80;99.90
57843;DHT22;43673;51.058;3.734;2023-10-13T03:02:16;18.90;99.90
57843;DHT22;43673;51.058;3.734;2023-10-13T03:04:51;18.80;99.90
57843;DHT22;43673;51.058;3.734;2023-10-13T03:07:17;18.90;99.90
57843;DHT22;43673;51.058;3.734;2023-10-13T03:09:52;18.90;99.90
57843;DHT22;43673;51.058;3.734;2023-10-13T03:12:18;18.90;99.90
57843;DHT22;43673;51.058;3.734;2023-10-13T03:14:44;18.90;99.90
57843;DHT22;43673;51.058;3.734;2023-10-13T03:17:35;18.90;99.90
57843;DHT22;43673;51.058;3.734;2023-10-13T03:20:01;18.90;99.90
57843;DHT22;43673;51.058;3.734;2023-10-13T03:22:30;18.90;99.90
57843;DHT22;43673;51.058;3.734;2023-10-13T03:24:57;18.90;99.90
57843;DHT22;43673;51.058;3.734;2023-10-13T03:27:30;19.00;99.90
57843;DHT22;43673;51.058;3.734;2023-10-13T03:30:06;19.00;99.90
57843;DHT22;43673;51.058;3.734;2023-10-13T03:32:41;18.90;99.90
57843;DHT22;43673;51.058;3.734;2023-10-13T03:35:22;19.00;99.90
57843;DHT22;43673;51.058;3.734;2023-10-13T03:37:54;19.00;99.90
57843;DHT22;43673;51.058;3.734;2023-10-13T03:40:21;19.10;99.90
57843;DHT22;43673;51.058;3.734;2023-10-13T03:42:50;19.00;99.90
57843;DHT22;43673;51.058;3.734;2023-10-13T03:45:35;19.10;99.90
57843;DHT22;43673;51.058;3.734;2023-10-13T03:48:06;19.10;99.90
57843;DHT22;43673;51.058;3.734;2023-10-13T03:50:36;19.10;99.90
57843;DHT22;43673;51.058;3.734;2023-10-13T03:53:03;19.10;99.90
57843;DHT22;43673;51.058;3.734;2023-10-13T03:55:31;19.10;99.90
57843;DHT22;43673;51.058;3.734;2023-10-13T03:58:00;19.10;99.90
57843;DHT22;43673;51.058;3.734;2023-10-13T04:00:26;19.10;99.90
57843;DHT22;43673;51.058;3.734;2023-10-13T04:02:53;19.10;99.90
57843;DHT22;43673;51.058;3.734;2023-10-13T04:05:32;19.10;99.90
57843;DHT22;43673;51.058;3.734;2023-10-13T04:08:11;19.10;99.90
57843;DHT22;43673;51.058;3.734;2023-10-13T04:11:03;19.10;99.90
57843;DHT22;43673;51.058;3.734;2023-10-13T04:13:47;19.10;99.90
57843;DHT22;43673;51.058;3.734;2023-10-13T04:16:35;19.10;99.90
57843;DHT22;43673;51.058;3.734;2023-10-13T04:19:02;19.10;99.90
57843;DHT22;43673;51.058;3.734;2023-10-13T04:21:28;19.10;99.90
57843;DHT22;43673;51.058;3.734;2023-10-13T04:26:56;19.00;99.90
57843;DHT22;43673;51.058;3.734;2023-10-13T04:29:40;19.10;99.90
57843;DHT22;43673;51.058;3.734;2023-10-13T04:32:21;19.10;99.90
57843;DHT22;43673;51.058;3.734;2023-10-13T04:35:04;19.00;99.90
57843;DHT22;43673;51.058;3.734;2023-10-13T04:37:39;19.00;99.90
57843;DHT22;43673;51.058;3.734;2023-10-13T04:40:26;18.90;99.90
57843;DHT22;43673;51.058;3.734;2023-10-13T04:42:56;18.90;99.90
57843;DHT22;43673;51.058;3.734;2023-10-13T04:45:30;18.90;99.90
57843;DHT22;43673;51.058;3.734;2023-10-13T04:47:56;18.90;99.90
57843;DHT22;43673;51.058;3.734;2023-10-13T04:50:40;18.80;99.90
57843;DHT22;43673;51.058;3.734;2023-10-13T04:53:14;18.80;99.90
57843;DHT22;43673;51.058;3.734;2023-10-13T04:55:59;18.80;99.90
57843;DHT22;43673;51.058;3.734;2023-10-13T04:58:33;18.90;99.90
57843;DHT22;43673;51.058;3.734;2023-10-13T05:03:29;18.90;99.90
57843;DHT22;43673;51.058;3.734;2023-10-13T05:06:18;18.90;99.90
57843;DHT22;43673;51.058;3.734;2023-10-13T05:09:03;18.80;99.90
57843;DHT22;43673;51.058;3.734;2023-10-13T05:11:47;18.80;99.90
57843;DHT22;43673;51.058;3.734;2023-10-13T05:14:31;18.90;99.90
57843;DHT22;43673;51.058;3.734;2023-10-13T05:17:15;18.90;99.90
57843;DHT22;43673;51.058;3.734;2023-10-13T05:19:59;18.90;99.90
57843;DHT22;43673;51.058;3.734;2023-10-13T05:22:43;18.90;99.90
57843;DHT22;43673;51.058;3.734;2023-10-13T05:25:27;18.90;99.90
57843;DHT22;43673;51.058;3.734;2023-10-13T05:28:11;18.90;99.90
57843;DHT22;43673;51.058;3.734;2023-10-13T05:30:59;18.80;99.90
57843;DHT22;43673;51.058;3.734;2023-10-13T05:33:43;18.90;99.90
57843;DHT22;43673;51.058;3.734;2023-10-13T05:36:27;18.90;99.90
57843;DHT22;43673;51.058;3.734;2023-10-13T05:39:12;18.80;99.90
57843;DHT22;43673;51.058;3.734;2023-10-13T05:41:56;18.90;99.90
57843;DHT22;43673;51.058;3.734;2023-10-13T05:44:40;18.90;99.90
57843;DHT22;43673;51.058;3.734;2023-10-13T05:47:26;18.90;99.90
57843;DHT22;43673;51.058;3.734;2023-10-13T05:50:12;18.90;99.90
57843;DHT22;43673;51.058;3.734;2023-10-13T05:52:47;19.00;99.90
57843;DHT22;43673;51.058;3.734;2023-10-13T05:55:25;19.00;99.90
57843;DHT22;43673;51.058;3.734;2023-10-13T05:58:09;19.00;99.90
57843;DHT22;43673;51.058;3.734;2023-10-13T06:00:54;19.10;99.90
57843;DHT22;43673;51.058;3.734;2023-10-13T06:03:38;19.10;99.90
57843;DHT22;43673;51.058;3.734;2023-10-13T06:06:22;19.10;99.90
57843;DHT22;43673;51.058;3.734;2023-10-13T06:09:06;19.20;99.90
57843;DHT22;43673;51.058;3.734;2023-10-13T06:11:50;19.20;99.90
57843;DHT22;43673;51.058;3.734;2023-10-13T06:14:35;19.20;99.90
57843;DHT22;43673;51.058;3.734;2023-10-13T06:17:18;19.00;99.90
57843;DHT22;43673;51.058;3.734;2023-10-13T06:20:03;19.10;99.90
57843;DHT22;43673;51.058;3.734;2023-10-13T06:22:48;19.20;99.90
57843;DHT22;43673;51.058;3.734;2023-10-13T06:25:32;19.20;99.90
57843;DHT22;43673;51.058;3.734;2023-10-13T06:28:16;19.30;99.90
57843;DHT22;43673;51.058;3.734;2023-10-13T06:31:03;19.30;99.90
57843;DHT22;43673;51.058;3.734;2023-10-13T06:33:31;19.40;99.90
57843;DHT22;43673;51.058;3.734;2023-10-13T06:36:03;19.40;99.90
57843;DHT22;43673;51.058;3.734;2023-10-13T06:38:29;19.40;99.90
57843;DHT22;43673;51.058;3.734;2023-10-13T06:41:07;19.50;99.90
57843;DHT22;43673;51.058;3.734;2023-10-13T06:43:37;19.50;99.90
57843;DHT22;43673;51.058;3.734;2023-10-13T06:46:09;19.50;99.90
57843;DHT22;43673;51.058;3.734;2023-10-13T06:48:41;19.60;99.90
57843;DHT22;43673;51.058;3.734;2023-10-13T06:51:08;19.60;99.90
57843;DHT22;43673;51.058;3.734;2023-10-13T06:53:44;19.70;99.90
57843;DHT22;43673;51.058;3.734;2023-10-13T06:56:15;19.70;99.90
57843;DHT22;43673;51.058;3.734;2023-10-13T06:58:48;19.80;99.90
57843;DHT22;43673;51.058;3.734;2023-10-13T07:01:14;19.90;99.90
57843;DHT22;43673;51.058;3.734;2023-10-13T07:03:47;20.00;99.90
57843;DHT22;43673;51.058;3.734;2023-10-13T07:06:20;20.00;99.90
57843;DHT22;43673;51.058;3.734;2023-10-13T07:08:47;20.10;99.90
57843;DHT22;43673;51.058;3.734;2023-10-13T07:11:18;20.10;99.90
57843;DHT22;43673;51.058;3.734;2023-10-13T07:14:02;20.10;99.90
57843;DHT22;43673;51.058;3.734;2023-10-13T07:16:56;20.10;99.90
57843;DHT22;43673;51.058;3.734;2023-10-13T07:19:25;20.20;99.90
57843;DHT22;43673;51.058;3.734;2023-10-13T07:22:03;20.20;99.90
57843;DHT22;43673;51.058;3.734;2023-10-13T07:24:48;20.20;99.90
57843;DHT22;43673;51.058;3.734;2023-10-13T07:27:21;20.30;99.90
57843;DHT22;43673;51.058;3.734;2023-10-13T07:29:51;20.40;99.90
57843;DHT22;43673;51.058;3.734;2023-10-13T07:32:43;20.50;99.90
57843;DHT22;43673;51.058;3.734;2023-10-13T07:35:15;20.60;99.90
57843;DHT22;43673;51.058;3.734;2023-10-13T07:37:43;20.70;99.90
57843;DHT22;43673;51.058;3.734;2023-10-13T07:40:10;20.70;99.90
57843;DHT22;43673;51.058;3.734;2023-10-13T07:42:52;20.80;99.90
57843;DHT22;43673;51.058;3.734;2023-10-13T07:45:18;20.80;99.90
57843;DHT22;43673;51.058;3.734;2023-10-13T07:47:47;20.90;99.90
57843;DHT22;43673;51.058;3.734;2023-10-13T07:50:15;21.00;99.90
57843;DHT22;43673;51.058;3.734;2023-10-13T07:52:49;21.10;99.90
57843;DHT22;43673;51.058;3.734;2023-10-13T07:55:31;21.10;99.90
57843;DHT22;43673;51.058;3.734;2023-10-13T07:57:59;21.10;99.90
57843;DHT22;43673;51.058;3.734;2023-10-13T08:00:26;21.20;99.90
57843;DHT22;43673;51.058;3.734;2023-10-13T08:03:04;21.30;99.90
57843;DHT22;43673;51.058;3.734;2023-10-13T08:05:35;21.40;99.90
57843;DHT22;43673;51.058;3.734;2023-10-13T08:08:34;21.50;99.90
57843;DHT22;43673;51.058;3.734;2023-10-13T08:37:06;21.60;99.90
57843;DHT22;43673;51.058;3.734;2023-10-13T08:39:59;21.60;99.90
57843;DHT22;43673;51.058;3.734;2023-10-13T08:42:37;21.70;99.90
57843;DHT22;43673;51.058;3.734;2023-10-13T08:45:10;21.90;99.90
57843;DHT22;43673;51.058;3.734;2023-10-13T08:47:55;21.90;99.90
57843;DHT22;43673;51.058;3.734;2023-10-13T08:56:02;21.90;99.90
57843;DHT22;43673;51.058;3.734;2023-10-13T08:58:42;22.00;99.90
57843;DHT22;43673;51.058;3.734;2023-10-13T09:01:35;22.20;99.90
57843;DHT22;43673;51.058;3.734;2023-10-13T09:04:12;22.30;99.90
57843;DHT22;43673;51.058;3.734;2023-10-13T09:06:54;22.30;99.90
57843;DHT22;43673;51.058;3.734;2023-10-13T09:09:47;22.20;99.90
57843;DHT22;43673;51.058;3.734;2023-10-13T09:12:17;22.20;99.90
57843;DHT22;43673;51.058;3.734;2023-10-13T09:14:54;22.10;99.90
57843;DHT22;43673;51.058;3.734;2023-10-13T09:17:26;22.00;99.90
57843;DHT22;43673;51.058;3.734;2023-10-13T09:20:04;22.10;99.90
57843;DHT22;43673;51.058;3.734;2023-10-13T09:22:54;22.00;99.90
57843;DHT22;43673;51.058;3.734;2023-10-13T09:25:30;21.90;99.90
57843;DHT22;43673;51.058;3.734;2023-10-13T09:28:09;21.90;99.90
57843;DHT22;43673;51.058;3.734;2023-10-13T09:30:44;21.90;99.90
57843;DHT22;43673;51.058;3.734;2023-10-13T09:33:10;21.90;99.90
57843;DHT22;43673;51.058;3.734;2023-10-13T09:35:43;21.90;99.90
57843;DHT22;43673;51.058;3.734;2023-10-13T09:38:15;21.90;99.90
57843;DHT22;43673;51.058;3.734;2023-10-13T09:40:42;21.90;99.90
57843;DHT22;43673;51.058;3.734;2023-10-13T09:43:19;21.90;99.90
57843;DHT22;43673;51.058;3.734;2023-10-13T09:45:48;21.90;99.90
57843;DHT22;43673;51.058;3.734;2023-10-13T09:48:45;21.90;99.90
57843;DHT22;43673;51.058;3.734;2023-10-13T09:51:13;21.80;99.90
57843;DHT22;43673;51.058;3.734;2023-10-13T09:53:40;21.80;99.90
57843;DHT22;43673;51.058;3.734;2023-10-13T09:56:11;21.80;99.90
57843;DHT22;43673;51.058;3.734;2023-10-13T09:58:48;21.80;99.90
57843;DHT22;43673;51.058;3.734;2023-10-13T10:01:22;21.70;99.90
57843;DHT22;43673;51.058;3.734;2023-10-13T10:04:07;21.80;99.90
57843;DHT22;43673;51.058;3.734;2023-10-13T10:06:35;21.70;99.90
57843;DHT22;43673;51.058;3.734;2023-10-13T10:09:12;21.80;99.90
57843;DHT22;43673;51.058;3.734;2023-10-13T10:15:16;21.70;99.90
57843;DHT22;43673;51.058;3.734;2023-10-13T10:17:22;21.70;99.90
57843;DHT22;43673;51.058;3.734;2023-10-13T10:19:55;21.60;99.90
57843;DHT22;43673;51.058;3.734;2023-10-13T10:22:32;21.60;99.90
57843;DHT22;43673;51.058;3.734;2023-10-13T10:25:05;21.60;99.90
57843;DHT22;43673;51.058;3.734;2023-10-13T10:27:59;21.50;99.90
57843;DHT22;43673;51.058;3.734;2023-10-13T10:30:29;21.70;99.90
57843;DHT22;43673;51.058;3.734;2023-10-13T10:32:59;21.80;99.90
57843;DHT22;43673;51.058;3.734;2023-10-13T10:35:25;21.90;99.90
57843;DHT22;43673;51.058;3.734;2023-10-13T10:38:17;21.90;99.90
57843;DHT22;43673;51.058;3.734;2023-10-13T10:40:57;22.00;99.90
57843;DHT22;43673;51.058;3.734;2023-10-13T10:43:36;22.10;99.90
57843;DHT22;43673;51.058;3.734;2023-10-13T10:46:17;22.20;99.90
57843;DHT22;43673;51.058;3.734;2023-10-13T10:48:43;22.40;99.90
57843;DHT22;43673;51.058;3.734;2023-10-13T10:51:13;22.60;99.90
57843;DHT22;43673;51.058;3.734;2023-10-13T10:53:40;22.60;99.90
57843;DHT22;43673;51.058;3.734;2023-10-13T10:56:13;22.70;99.90
57843;DHT22;43673;51.058;3.734;2023-10-13T10:58:47;23.00;99.90
57843;DHT22;43673;51.058;3.734;2023-10-13T11:01:13;23.10;99.90
57843;DHT22;43673;51.058;3.734;2023-10-13T11:04:03;23.10;99.90
57843;DHT22;43673;51.058;3.734;2023-10-13T11:06:54;23.20;99.90
57843;DHT22;43673;51.058;3.734;2023-10-13T11:09:31;23.10;99.90
57843;DHT22;43673;51.058;3.734;2023-10-13T11:12:09;23.10;99.90
57843;DHT22;43673;51.058;3.734;2023-10-13T11:15:03;23.20;99.90
57843;DHT22;43673;51.058;3.734;2023-10-13T11:17:37;23.30;99.90
57843;DHT22;43673;51.058;3.734;2023-10-13T11:20:17;23.40;99.90
57843;DHT22;43673;51.058;3.734;2023-10-13T11:22:47;23.40;99.90
57843;DHT22;43673;51.058;3.734;2023-10-13T11:25:22;23.50;99.90
57843;DHT22;43673;51.058;3.734;2023-10-13T11:30:44;23.60;99.90
57843;DHT22;43673;51.058;3.734;2023-10-13T11:33:22;23.60;99.90
57843;DHT22;43673;51.058;3.734;2023-10-13T11:35:52;23.70;99.90
57843;DHT22;43673;51.058;3.734;2023-10-13T11:38:18;23.90;99.90
57843;DHT22;43673;51.058;3.734;2023-10-13T11:41:04;23.80;99.90
57843;DHT22;43673;51.058;3.734;2023-10-13T11:46:22;23.70;99.90
57843;DHT22;43673;51.058;3.734;2023-10-13T11:49:17;23.70;99.90
57843;DHT22;43673;51.058;3.734;2023-10-13T11:51:52;23.60;99.90
57843;DHT22;43673;51.058;3.734;2023-10-13T11:54:28;23.50;99.90
57843;DHT22;43673;51.058;3.734;2023-10-13T11:56:54;23.40;99.90
57843;DHT22;43673;51.058;3.734;2023-10-13T11:59:23;23.40;99.90
57843;DHT22;43673;51.058;3.734;2023-10-13T12:01:53;23.40;99.90
57843;DHT22;43673;51.058;3.734;2023-10-13T12:04:45;23.40;99.90
57843;DHT22;43673;51.058;3.734;2023-10-13T12:07:18;23.60;99.90
57843;DHT22;43673;51.058;3.734;2023-10-13T12:10:05;23.70;99.90
57843;DHT22;43673;51.058;3.734;2023-10-13T12:12:40;23.80;99.90
57843;DHT22;43673;51.058;3.734;2023-10-13T12:15:09;24.00;99.90
57843;DHT22;43673;51.058;3.734;2023-10-13T12:17:35;24.20;99.90
57843;DHT22;43673;51.058;3.734;2023-10-13T12:20:03;24.40;99.90
57843;DHT22;43673;51.058;3.734;2023-10-13T12:22:39;24.60;99.90
57843;DHT22;43673;51.058;3.734;2023-10-13T12:25:08;24.70;99.90
57843;DHT22;43673;51.058;3.734;2023-10-13T12:27:53;24.70;99.90
57843;DHT22;43673;51.058;3.734;2023-10-13T12:30:23;24.80;99.90
57843;DHT22;43673;51.058;3.734;2023-10-13T12:33:14;24.90;99.90
57843;DHT22;43673;51.058;3.734;2023-10-13T12:35:42;24.90;99.90
57843;DHT22;43673;51.058;3.734;2023-10-13T12:38:31;25.00;99.90
57843;DHT22;43673;51.058;3.734;2023-10-13T12:41:15;24.90;99.90
57843;DHT22;43673;51.058;3.734;2023-10-13T12:44:00;25.00;99.90
57843;DHT22;43673;51.058;3.734;2023-10-13T12:46:45;24.80;99.90
57843;DHT22;43673;51.058;3.734;2023-10-13T12:49:29;24.70;99.90
57843;DHT22;43673;51.058;3.734;2023-10-13T12:52:14;24.60;99.90
57843;DHT22;43673;51.058;3.734;2023-10-13T12:54:57;24.40;99.90
57843;DHT22;43673;51.058;3.734;2023-10-13T12:57:24;24.40;99.90
57843;DHT22;43673;51.058;3.734;2023-10-13T12:59:50;24.20;99.90
57843;DHT22;43673;51.058;3.734;2023-10-13T13:02:22;24.40;99.90
57843;DHT22;43673;51.058;3.734;2023-10-13T13:04:50;24.40;99.90
57843;DHT22;43673;51.058;3.734;2023-10-13T13:07:20;24.20;99.90
57843;DHT22;43673;51.058;3.734;2023-10-13T13:09:45;24.10;99.90
57843;DHT22;43673;51.058;3.734;2023-10-13T13:12:11;24.10;99.90
57843;DHT22;43673;51.058;3.734;2023-10-13T13:14:40;24.10;99.90
57843;DHT22;43673;51.058;3.734;2023-10-13T13:17:12;24.00;99.90
57843;DHT22;43673;51.058;3.734;2023-10-13T13:19:38;23.90;99.90
57843;DHT22;43673;51.058;3.734;2023-10-13T13:22:08;23.80;99.90
57843;DHT22;43673;51.058;3.734;2023-10-13T13:24:38;23.90;99.90
57843;DHT22;43673;51.058;3.734;2023-10-13T13:27:10;23.80;99.90
57843;DHT22;43673;51.058;3.734;2023-10-13T13:29:40;23.90;99.90
57843;DHT22;43673;51.058;3.734;2023-10-13T13:32:06;23.90;99.90
57843;DHT22;43673;51.058;3.734;2023-10-13T13:34:42;23.90;99.90
57843;DHT22;43673;51.058;3.734;2023-10-13T13:37:08;23.90;99.90
57843;DHT22;43673;51.058;3.734;2023-10-13T13:39:38;23.90;99.90
57843;DHT22;43673;51.058;3.734;2023-10-13T13:42:09;23.80;99.90
57843;DHT22;43673;51.058;3.734;2023-10-13T13:44:35;23.70;99.90
57843;DHT22;43673;51.058;3.734;2023-10-13T13:47:03;23.60;99.90
57843;DHT22;43673;51.058;3.734;2023-10-13T13:49:41;23.60;99.90
57843;DHT22;43673;51.058;3.734;2023-10-13T13:52:12;23.50;99.90
57843;DHT22;43673;51.058;3.734;2023-10-13T13:54:43;23.50;99.90
57843;DHT22;43673;51.058;3.734;2023-10-13T13:57:10;23.40;99.90
57843;DHT22;43673;51.058;3.734;2023-10-13T13:59:35;23.50;99.90
57843;DHT22;43673;51.058;3.734;2023-10-13T14:02:02;23.50;99.90
57843;DHT22;43673;51.058;3.734;2023-10-13T14:04:59;23.50;99.90
57843;DHT22;43673;51.058;3.734;2023-10-13T14:07:27;23.50;99.90
57843;DHT22;43673;51.058;3.734;2023-10-13T14:09:58;23.50;99.90
57843;DHT22;43673;51.058;3.734;2023-10-13T14:12:32;23.40;99.90
57843;DHT22;43673;51.058;3.734;2023-10-13T14:15:23;23.30;99.90
57843;DHT22;43673;51.058;3.734;2023-10-13T14:17:50;23.30;99.90
57843;DHT22;43673;51.058;3.734;2023-10-13T14:20:16;23.20;99.90
57843;DHT22;43673;51.058;3.734;2023-10-13T14:22:45;23.20;99.90
57843;DHT22;43673;51.058;3.734;2023-10-13T14:25:14;23.20;99.90
57843;DHT22;43673;51.058;3.734;2023-10-13T14:27:41;23.10;99.90
57843;DHT22;43673;51.058;3.734;2023-10-13T14:30:07;23.10;99.90
57843;DHT22;43673;51.058;3.734;2023-10-13T14:32:33;23.10;99.90
57843;DHT22;43673;51.058;3.734;2023-10-13T14:37:42;23.10;99.90
57843;DHT22;43673;51.058;3.734;2023-10-13T14:40:09;23.00;99.90
57843;DHT22;43673;51.058;3.734;2023-10-13T14:42:41;23.00;99.90
57843;DHT22;43673;51.058;3.734;2023-10-13T14:45:07;23.00;99.90
57843;DHT22;43673;51.058;3.734;2023-10-13T14:47:40;23.10;99.90
57843;DHT22;43673;51.058;3.734;2023-10-13T14:50:06;23.00;99.90
57843;DHT22;43673;51.058;3.734;2023-10-13T14:52:32;23.00;99.90
57843;DHT22;43673;51.058;3.734;2023-10-13T14:54:58;23.00;99.90
57843;DHT22;43673;51.058;3.734;2023-10-13T14:57:27;23.00;99.90
57843;DHT22;43673;51.058;3.734;2023-10-13T14:59:53;23.10;99.90
57843;DHT22;43673;51.058;3.734;2023-10-13T15:02:20;23.10;99.90
57843;DHT22;43673;51.058;3.734;2023-10-13T15:04:49;23.10;99.90
57843;DHT22;43673;51.058;3.734;2023-10-13T15:07:16;23.20;99.90
57843;DHT22;43673;51.058;3.734;2023-10-13T15:09:43;23.20;99.90
57843;DHT22;43673;51.058;3.734;2023-10-13T15:12:12;23.20;99.90
57843;DHT22;43673;51.058;3.734;2023-10-13T15:14:38;23.20;99.90
57843;DHT22;43673;51.058;3.734;2023-10-13T15:17:08;23.10;99.90
57843;DHT22;43673;51.058;3.734;2023-10-13T15:19:37;23.10;99.90
57843;DHT22;43673;51.058;3.734;2023-10-13T15:22:08;23.10;99.90
57843;DHT22;43673;51.058;3.734;2023-10-13T15:24:42;22.90;99.90
57843;DHT22;43673;51.058;3.734;2023-10-13T15:27:23;23.20;99.90
57843;DHT22;43673;51.058;3.734;2023-10-13T15:29:49;23.20;99.90
57843;DHT22;43673;51.058;3.734;2023-10-13T15:32:16;23.20;99.90
57843;DHT22;43673;51.058;3.734;2023-10-13T15:35:00;23.20;99.90
57843;DHT22;43673;51.058;3.734;2023-10-13T15:37:26;23.20;99.90
57843;DHT22;43673;51.058;3.734;2023-10-13T15:39:53;23.10;99.90
57843;DHT22;43673;51.058;3.734;2023-10-13T15:42:18;23.10;99.90
57843;DHT22;43673;51.058;3.734;2023-10-13T15:44:46;23.00;99.90
57843;DHT22;43673;51.058;3.734;2023-10-13T15:47:14;23.10;99.90
57843;DHT22;43673;51.058;3.734;2023-10-13T15:49:40;23.00;99.90
57843;DHT22;43673;51.058;3.734;2023-10-13T15:52:10;22.90;99.90
57843;DHT22;43673;51.058;3.734;2023-10-13T15:54:36;22.90;99.90
57843;DHT22;43673;51.058;3.734;2023-10-13T15:57:01;23.00;99.90
57843;DHT22;43673;51.058;3.734;2023-10-13T15:59:32;22.80;99.90
57843;DHT22;43673;51.058;3.734;2023-10-13T16:02:00;22.60;99.90
57843;DHT22;43673;51.058;3.734;2023-10-13T16:04:26;22.30;99.90
57843;DHT22;43673;51.058;3.734;2023-10-13T16:06:51;22.00;99.90
57843;DHT22;43673;51.058;3.734;2023-10-13T16:09:18;22.10;99.90
57843;DHT22;43673;51.058;3.734;2023-10-13T16:11:54;22.10;99.90
57843;DHT22;43673;51.058;3.734;2023-10-13T16:14:20;22.10;99.90
57843;DHT22;43673;51.058;3.734;2023-10-13T16:16:48;22.10;99.90
57843;DHT22;43673;51.058;3.734;2023-10-13T16:19:17;22.10;99.90
57843;DHT22;43673;51.058;3.734;2023-10-13T16:21:47;22.00;99.90
57843;DHT22;43673;51.058;3.734;2023-10-13T16:24:13;21.90;99.90
57843;DHT22;43673;51.058;3.734;2023-10-13T16:26:46;21.90;99.90
57843;DHT22;43673;51.058;3.734;2023-10-13T16:29:18;21.90;99.90
57843;DHT22;43673;51.058;3.734;2023-10-13T16:31:44;21.90;99.90
57843;DHT22;43673;51.058;3.734;2023-10-13T16:34:15;21.90;99.90
57843;DHT22;43673;51.058;3.734;2023-10-13T16:36:42;21.90;99.90
57843;DHT22;43673;51.058;3.734;2023-10-13T16:39:10;21.90;99.90
57843;DHT22;43673;51.058;3.734;2023-10-13T16:41:36;21.90;99.90
57843;DHT22;43673;51.058;3.734;2023-10-13T16:44:02;21.90;99.90
57843;DHT22;43673;51.058;3.734;2023-10-13T16:46:35;21.70;99.90
57843;DHT22;43673;51.058;3.734;2023-10-13T16:49:02;21.40;99.90
57843;DHT22;43673;51.058;3.734;2023-10-13T16:51:27;21.20;99.90
57843;DHT22;43673;51.058;3.734;2023-10-13T16:53:54;21.00;99.90
57843;DHT22;43673;51.058;3.734;2023-10-13T16:56:20;20.60;99.90
57843;DHT22;43673;51.058;3.734;2023-10-13T16:58:48;20.40;99.90